createdAt,value
2019-03-11T00:01:57.743Z,2.10
2019-03-11T00:04:02.509Z,2.20
2019-03-11T00:06:07.441Z,2.13
2019-03-11T00:08:28.531Z,2.27
2019-03-11T00:10:33.284Z,2.17
2019-03-11T00:12:38.034Z,2.50
2019-03-11T00:14:42.727Z,2.40
2019-03-11T00:16:47.905Z,1.90
2019-03-11T00:18:53.152Z,2.17
2019-03-11T00:20:57.931Z,3.13
2019-03-11T00:23:02.775Z,2.37
2019-03-11T00:25:07.704Z,1.87
2019-03-11T00:27:12.840Z,1.70
2019-03-11T00:29:17.584Z,2.27
2019-03-11T00:31:22.303Z,2.00
2019-03-11T00:33:27.063Z,1.77
2019-03-11T00:35:31.815Z,1.57
2019-03-11T00:37:37.382Z,1.97
2019-03-11T00:39:44.915Z,1.90
2019-03-11T00:41:49.964Z,1.77
2019-03-11T00:43:55.042Z,1.80
2019-03-11T00:46:00.234Z,1.87
2019-03-11T00:48:04.963Z,1.50
2019-03-11T00:50:10.748Z,1.60
2019-03-11T00:52:15.501Z,1.70
2019-03-11T00:54:20.601Z,1.70
2019-03-11T00:56:28.097Z,2.40
2019-03-11T00:58:33.574Z,1.87
2019-03-11T01:00:39.266Z,1.90
2019-03-11T01:02:44.028Z,2.23
2019-03-11T01:04:49.126Z,1.60
2019-03-11T01:06:53.969Z,2.20
2019-03-11T01:08:59.182Z,1.87
2019-03-11T01:11:04.325Z,3.07
2019-03-11T01:13:09.187Z,2.20
2019-03-11T01:15:13.975Z,2.17
2019-03-11T01:17:18.688Z,2.00
2019-03-11T01:19:23.481Z,1.70
2019-03-11T01:21:28.652Z,2.10
2019-03-11T01:23:33.405Z,2.00
2019-03-11T01:25:38.120Z,2.10
2019-03-11T01:27:43.065Z,1.83
2019-03-11T01:29:47.805Z,2.83
2019-03-11T01:31:52.516Z,2.20
2019-03-11T01:33:57.231Z,1.57
2019-03-11T01:36:01.999Z,2.03
2019-03-11T01:38:06.774Z,1.93
2019-03-11T01:40:13.296Z,1.77
2019-03-11T01:42:18.317Z,1.60
2019-03-11T01:44:23.073Z,2.03
2019-03-11T01:46:27.788Z,1.87
2019-03-11T01:48:32.634Z,2.00
2019-03-11T01:50:37.349Z,2.07
2019-03-11T01:52:42.109Z,2.17
2019-03-11T01:54:47.200Z,1.73
2019-03-11T01:56:51.948Z,1.57
2019-03-11T01:58:56.749Z,1.67
2019-03-11T02:01:01.524Z,1.73
2019-03-11T02:03:06.702Z,1.83
2019-03-11T02:05:11.733Z,1.67
2019-03-11T02:07:17.092Z,1.50
2019-03-11T02:09:22.371Z,2.07
2019-03-11T02:11:27.529Z,1.90
2019-03-11T02:13:32.334Z,1.33
2019-03-11T02:15:37.799Z,1.97
2019-03-11T02:17:42.877Z,2.47
2019-03-11T02:19:48.020Z,2.13
2019-03-11T02:21:52.692Z,2.10
2019-03-11T02:23:57.409Z,2.50
2019-03-11T02:26:02.729Z,2.43
2019-03-11T02:28:07.465Z,2.20
2019-03-11T02:30:15.904Z,2.37
2019-03-11T02:32:20.802Z,2.30
2019-03-11T02:34:25.595Z,2.30
2019-03-11T02:36:30.385Z,2.90
2019-03-11T02:38:35.189Z,2.30
2019-03-11T02:40:40.057Z,2.03
2019-03-11T02:42:44.816Z,2.10
2019-03-11T02:44:49.603Z,3.07
2019-03-11T02:46:54.356Z,2.70
2019-03-11T02:48:59.527Z,2.43
2019-03-11T02:51:04.387Z,2.53
2019-03-11T02:53:09.993Z,2.93
2019-03-11T02:55:14.869Z,2.40
2019-03-11T02:57:19.946Z,2.53
2019-03-11T02:59:24.695Z,2.50
2019-03-11T03:01:46.808Z,2.50
2019-03-11T03:04:04.507Z,2.60
2019-03-11T03:06:15.759Z,2.43
2019-03-11T03:08:20.614Z,2.30
2019-03-11T03:10:25.372Z,2.47
2019-03-11T03:12:30.153Z,2.80
2019-03-11T03:14:35.111Z,2.47
2019-03-11T03:16:40.255Z,1.93
2019-03-11T03:18:45.422Z,2.20
2019-03-11T03:20:50.171Z,2.23
2019-03-11T03:22:55.019Z,1.90
2019-03-11T03:24:59.803Z,2.43
2019-03-11T03:27:04.668Z,2.30
2019-03-11T03:29:09.594Z,2.23
2019-03-11T03:31:14.470Z,2.30
2019-03-11T03:33:19.208Z,2.27
2019-03-11T03:35:24.499Z,1.73
2019-03-11T03:37:30.264Z,2.37
2019-03-11T03:39:35.487Z,2.83
2019-03-11T03:41:40.580Z,2.43
2019-03-11T03:43:45.407Z,2.00
2019-03-11T03:45:50.592Z,2.60
2019-03-11T03:47:55.399Z,2.50
2019-03-11T03:50:04.325Z,2.40
2019-03-11T03:52:09.165Z,2.20
2019-03-11T03:54:14.577Z,2.33
2019-03-11T03:56:19.665Z,2.30
2019-03-11T03:58:24.856Z,2.20
2019-03-11T04:00:30.197Z,2.30
2019-03-11T04:02:35.437Z,1.80
2019-03-11T04:04:41.066Z,2.43
2019-03-11T04:06:45.802Z,1.57
2019-03-11T04:08:50.612Z,1.70
2019-03-11T04:10:55.712Z,2.00
2019-03-11T04:13:01.353Z,1.63
2019-03-11T04:15:07.015Z,1.93
2019-03-11T04:17:11.898Z,2.17
2019-03-11T04:19:16.761Z,1.53
2019-03-11T04:21:21.777Z,2.00
2019-03-11T04:23:26.674Z,1.80
2019-03-11T04:25:31.678Z,1.40
2019-03-11T04:27:36.695Z,2.00
2019-03-11T04:29:42.340Z,2.10
2019-03-11T04:31:49.577Z,1.53
2019-03-11T04:33:55.847Z,1.77
2019-03-11T04:36:02.800Z,1.80
2019-03-11T04:38:08.715Z,2.57
2019-03-11T04:40:14.966Z,1.90
2019-03-11T04:42:22.508Z,2.33
2019-03-11T04:44:27.549Z,2.10
2019-03-11T04:46:32.626Z,1.73
2019-03-11T04:48:37.709Z,2.30
2019-03-11T04:50:42.812Z,2.30
2019-03-11T04:52:47.948Z,2.37
2019-03-11T04:54:52.688Z,2.33
2019-03-11T04:56:57.481Z,2.03
2019-03-11T04:59:14.393Z,2.77
2019-03-11T05:01:19.114Z,2.57
2019-03-11T05:03:24.127Z,2.57
2019-03-11T05:05:28.877Z,1.97
2019-03-11T05:07:34.434Z,2.07
2019-03-11T05:09:39.729Z,2.33
2019-03-11T05:11:44.574Z,2.30
2019-03-11T05:13:49.885Z,2.50
2019-03-11T05:15:55.058Z,1.80
2019-03-11T05:18:00.266Z,2.63
2019-03-11T05:20:06.333Z,2.13
2019-03-11T05:22:11.922Z,2.00
2019-03-11T05:24:16.810Z,2.27
2019-03-11T05:26:22.234Z,1.87
2019-03-11T05:28:28.804Z,2.17
2019-03-11T05:30:34.929Z,2.30
2019-03-11T05:32:40.729Z,2.03
2019-03-11T05:34:45.902Z,2.30
2019-03-11T05:36:50.686Z,1.57
2019-03-11T05:38:56.426Z,1.87
2019-03-11T05:41:01.489Z,1.83
2019-03-11T05:43:06.246Z,2.03
2019-03-11T05:45:12.380Z,1.80
2019-03-11T05:47:17.108Z,1.90
2019-03-11T05:49:22.003Z,2.30
2019-03-11T05:51:31.590Z,1.97
2019-03-11T05:53:34.178Z,1.50
2019-03-11T05:55:39.030Z,2.17
2019-03-11T05:57:44.416Z,2.30
2019-03-11T05:59:49.228Z,2.10
2019-03-11T06:01:54.009Z,2.37
2019-03-11T06:03:58.805Z,2.10
2019-03-11T06:06:03.789Z,2.10
2019-03-11T06:08:10.019Z,2.70
2019-03-11T06:10:15.588Z,2.60
2019-03-11T06:12:20.911Z,2.03
2019-03-11T06:14:25.682Z,2.70
2019-03-11T06:16:30.541Z,2.40
2019-03-11T06:18:47.500Z,2.07
2019-03-11T06:21:11.299Z,2.40
2019-03-11T06:23:16.307Z,2.30
2019-03-11T06:25:25.236Z,2.30
2019-03-11T06:30:46.007Z,2.90
2019-03-11T06:32:50.779Z,2.93
2019-03-11T06:34:56.129Z,3.17
2019-03-11T06:37:01.644Z,3.00
2019-03-11T06:39:08.439Z,2.90
2019-03-11T06:41:14.938Z,3.17
2019-03-11T06:43:19.993Z,2.63
2019-03-11T06:45:24.842Z,3.57
2019-03-11T06:47:30.119Z,3.47
2019-03-11T06:49:34.997Z,3.10
2019-03-11T06:51:39.830Z,3.03
2019-03-11T06:53:44.856Z,3.17
2019-03-11T06:55:50.341Z,3.33
2019-03-11T06:57:56.104Z,3.17
2019-03-11T07:05:28.086Z,2.80
2019-03-11T07:11:15.537Z,2.50
2019-03-11T07:31:57.732Z,2.17
2019-03-11T07:32:25.040Z,2.17
2019-03-11T07:34:51.062Z,2.33
2019-03-11T07:37:15.912Z,2.50
2019-03-11T07:39:23.789Z,2.60
2019-03-11T07:41:40.032Z,2.70
2019-03-11T07:43:57.358Z,2.50
2019-03-11T07:46:08.765Z,2.53
2019-03-11T07:48:28.274Z,2.30
2019-03-11T07:51:05.176Z,2.93
2019-03-11T07:53:44.283Z,3.73
2019-03-11T07:56:06.492Z,3.30
2019-03-11T07:58:31.984Z,4.00
2019-03-11T08:01:28.688Z,3.10
2019-03-11T08:04:03.842Z,3.23
2019-03-11T08:08:56.594Z,3.30
2019-03-11T08:11:08.929Z,3.30
2019-03-11T08:13:14.729Z,3.70
2019-03-11T08:15:20.379Z,3.87
2019-03-11T08:17:29.209Z,2.77
2019-03-11T08:19:34.763Z,2.60
2019-03-11T08:21:39.947Z,2.47
2019-03-11T08:23:57.728Z,2.53
2019-03-11T08:26:15.835Z,2.80
2019-03-11T08:31:16.916Z,2.90
2019-03-11T08:34:16.682Z,2.90
2019-03-11T09:11:59.558Z,3.83
2019-03-11T09:18:10.322Z,2.80
2019-03-11T09:24:27.186Z,2.80
2019-03-11T09:26:59.687Z,2.90
2019-03-11T09:29:30.591Z,2.40
2019-03-11T09:32:08.993Z,2.50
2019-03-11T09:34:39.787Z,2.70
2019-03-11T09:38:10.486Z,2.47
2019-03-11T09:43:46.479Z,5.43
2019-03-11T09:55:40.611Z,2.73
2019-03-11T10:01:47.358Z,2.73
2019-03-11T10:10:08.025Z,3.10
2019-03-11T10:12:23.400Z,3.00
2019-03-11T10:14:37.952Z,4.40
2019-03-11T10:17:27.286Z,2.30
2019-03-11T10:26:46.245Z,2.50
2019-03-11T10:29:09.209Z,2.93
2019-03-11T10:31:29.499Z,3.10
2019-03-11T10:33:39.565Z,2.77
2019-03-11T11:17:09.090Z,3.33
2019-03-11T11:19:14.273Z,2.57
2019-03-11T11:21:19.219Z,2.90
2019-03-11T11:23:23.979Z,1.97
2019-03-11T11:25:29.575Z,2.47
2019-03-11T11:27:36.532Z,2.83
2019-03-11T11:29:40.842Z,2.43
2019-03-11T11:31:45.957Z,2.23
2019-03-11T11:33:51.059Z,2.37
2019-03-11T11:35:56.563Z,2.43
2019-03-11T11:38:01.344Z,2.73
2019-03-11T11:40:08.224Z,2.20
2019-03-11T11:42:13.091Z,2.53
2019-03-11T11:44:18.332Z,2.90
2019-03-11T11:46:23.754Z,1.90
2019-03-11T11:48:28.898Z,2.30
2019-03-11T11:50:34.003Z,3.07
2019-03-11T11:52:39.019Z,2.63
2019-03-11T11:54:43.881Z,2.27
2019-03-11T11:56:48.596Z,2.10
2019-03-11T11:58:53.364Z,2.20
2019-03-11T12:00:58.097Z,2.23
2019-03-11T12:03:03.206Z,2.50
2019-03-11T12:05:09.960Z,3.07
2019-03-11T12:07:14.816Z,2.80
2019-03-11T12:09:19.544Z,3.07
2019-03-11T12:11:24.653Z,2.10
2019-03-11T12:13:29.383Z,2.40
2019-03-11T12:15:34.619Z,2.47
2019-03-11T12:17:42.815Z,2.80
2019-03-11T12:19:47.512Z,2.50
2019-03-11T12:21:52.302Z,2.53
2019-03-11T12:23:57.135Z,2.67
2019-03-11T12:26:01.928Z,2.33
2019-03-11T12:28:07.299Z,2.17
2019-03-11T12:30:17.898Z,2.20
2019-03-11T12:32:23.557Z,2.40
2019-03-11T12:34:28.422Z,2.60
2019-03-11T12:36:33.126Z,2.40
2019-03-11T12:38:38.142Z,2.07
2019-03-11T12:40:43.648Z,2.30
2019-03-11T12:42:48.460Z,2.20
2019-03-11T12:44:53.821Z,2.30
2019-03-11T12:46:58.735Z,2.17
2019-03-11T12:49:03.571Z,2.30
2019-03-11T12:51:08.446Z,1.80
2019-03-11T12:53:13.440Z,2.80
2019-03-11T12:55:21.035Z,1.97
2019-03-11T12:57:24.791Z,2.40
2019-03-11T12:59:29.529Z,2.83
2019-03-11T13:01:34.942Z,1.90
2019-03-11T13:03:39.725Z,2.43
2019-03-11T13:05:45.065Z,1.97
2019-03-11T13:07:50.403Z,2.27
2019-03-11T13:09:55.530Z,1.90
2019-03-11T13:12:00.481Z,1.90
2019-03-11T13:14:05.366Z,1.93
2019-03-11T13:16:10.126Z,2.20
2019-03-11T13:18:50.555Z,1.73
2019-03-11T13:20:55.701Z,2.00
2019-03-11T13:23:00.487Z,2.30
2019-03-11T13:25:05.557Z,2.03
2019-03-11T13:27:10.330Z,2.00
2019-03-11T13:29:15.109Z,1.80
2019-03-11T13:31:19.915Z,1.87
2019-03-11T13:33:25.241Z,2.00
2019-03-11T13:35:30.441Z,2.30
2019-03-11T13:37:35.293Z,1.97
2019-03-11T13:39:40.461Z,2.10
2019-03-11T13:41:45.678Z,1.70
2019-03-11T13:43:50.431Z,2.50
2019-03-11T13:45:55.339Z,2.50
2019-03-11T13:48:00.196Z,2.07
2019-03-11T13:50:06.486Z,2.10
2019-03-11T13:52:11.226Z,1.80
2019-03-11T13:54:16.211Z,2.00
2019-03-11T13:56:21.306Z,2.17
2019-03-11T13:58:26.898Z,2.13
2019-03-11T14:00:31.860Z,2.87
2019-03-11T14:02:36.549Z,2.90
2019-03-11T14:04:41.774Z,1.80
2019-03-11T14:06:47.188Z,2.60
2019-03-11T14:08:52.292Z,1.80
2019-03-11T14:10:57.084Z,3.77
2019-03-11T14:13:01.774Z,2.83
2019-03-11T14:15:07.211Z,2.83
2019-03-11T14:17:12.891Z,2.40
2019-03-11T14:19:17.666Z,3.03
2019-03-11T14:21:25.958Z,2.30
2019-03-11T14:23:29.505Z,2.10
2019-03-11T14:25:34.205Z,2.70
2019-03-11T14:27:38.965Z,1.90
2019-03-11T14:29:43.719Z,2.70
2019-03-11T14:31:49.005Z,2.20
2019-03-11T14:33:53.836Z,2.57
2019-03-11T14:35:58.612Z,2.40
2019-03-11T14:38:43.445Z,2.67
2019-03-11T14:41:01.365Z,2.77
2019-03-11T14:43:06.228Z,2.97
2019-03-11T14:45:12.949Z,3.30
2019-03-11T14:50:47.075Z,2.77
2019-03-11T14:52:52.409Z,2.77
2019-03-11T14:54:57.245Z,2.40
2019-03-11T14:57:02.992Z,2.33
2019-03-11T14:59:07.937Z,1.70
2019-03-11T15:01:12.984Z,2.00
2019-03-11T15:03:18.235Z,1.87
2019-03-11T15:05:23.439Z,1.83
2019-03-11T15:07:28.247Z,2.23
2019-03-11T15:09:33.112Z,2.20
2019-03-11T15:11:37.871Z,2.07
2019-03-11T15:13:42.741Z,2.57
2019-03-11T15:15:47.614Z,1.90
2019-03-11T15:17:52.309Z,2.20
2019-03-11T15:19:57.191Z,2.67
2019-03-11T15:22:02.279Z,2.00
2019-03-11T15:24:09.118Z,2.43
2019-03-11T15:26:24.435Z,1.70
2019-03-11T15:28:21.123Z,2.17
2019-03-11T15:30:25.964Z,1.60
2019-03-11T15:32:31.145Z,2.00
2019-03-11T15:34:35.842Z,1.60
2019-03-11T15:36:41.509Z,2.43
2019-03-11T15:38:56.665Z,1.90
2019-03-11T15:41:02.507Z,2.00
2019-03-11T15:43:07.866Z,2.00
2019-03-11T15:45:14.110Z,1.90
2019-03-11T15:47:19.360Z,2.20
2019-03-11T15:49:24.600Z,1.73
2019-03-11T15:51:36.559Z,1.67
2019-03-11T15:53:35.810Z,2.17
2019-03-11T15:55:40.933Z,2.03
2019-03-11T15:57:45.826Z,2.00
2019-03-11T15:59:50.582Z,2.00
2019-03-11T16:01:55.298Z,1.97
2019-03-11T16:04:00.626Z,2.10
2019-03-11T16:06:05.709Z,1.90
2019-03-11T16:08:10.581Z,2.40
2019-03-11T16:10:16.990Z,2.17
2019-03-11T16:12:22.047Z,2.30
2019-03-11T16:14:26.864Z,2.53
2019-03-11T16:16:32.552Z,2.50
2019-03-11T16:18:37.561Z,2.30
2019-03-11T16:20:42.882Z,2.30
2019-03-11T16:22:47.735Z,2.23
2019-03-11T16:24:52.873Z,2.63
2019-03-11T16:26:59.083Z,2.10
2019-03-11T16:29:04.279Z,2.20
2019-03-11T16:31:09.570Z,1.87
2019-03-11T16:33:14.674Z,1.97
2019-03-11T16:35:20.407Z,1.80
2019-03-11T16:37:25.723Z,2.17
2019-03-11T16:39:30.548Z,2.23
2019-03-11T16:41:35.344Z,1.93
2019-03-11T16:43:40.264Z,2.90
2019-03-11T16:45:45.262Z,2.30
2019-03-11T16:47:50.498Z,2.20
2019-03-11T16:49:56.946Z,2.10
2019-03-11T16:52:02.166Z,2.00
2019-03-11T16:54:06.928Z,2.63
2019-03-11T16:56:11.891Z,1.77
2019-03-11T16:58:17.816Z,2.97
2019-03-11T17:00:26.690Z,2.40
2019-03-11T17:02:31.633Z,2.40
2019-03-11T17:04:36.853Z,2.30
2019-03-11T17:06:41.759Z,2.20
2019-03-11T17:08:48.145Z,2.17
2019-03-11T17:10:53.697Z,3.10
2019-03-11T17:12:58.594Z,1.93
2019-03-11T17:15:03.442Z,2.27
2019-03-11T17:17:48.850Z,2.80
2019-03-11T17:19:54.053Z,6.63
2019-03-11T17:21:58.965Z,13.00
2019-03-11T17:24:03.740Z,2.57
2019-03-11T17:26:08.672Z,2.67
2019-03-11T17:28:13.532Z,2.60
2019-03-11T17:30:18.510Z,2.67
2019-03-11T17:32:23.277Z,2.33
2019-03-11T17:34:29.269Z,2.30
2019-03-11T17:36:34.180Z,2.20
2019-03-11T17:38:39.454Z,2.20
2019-03-11T17:40:47.364Z,3.70
2019-03-11T17:42:53.713Z,2.27
2019-03-11T17:44:58.731Z,2.90
2019-03-11T17:47:04.214Z,2.90
2019-03-11T17:49:09.467Z,2.30
2019-03-11T17:51:14.876Z,2.40
2019-03-11T17:53:20.544Z,3.33
2019-03-11T17:55:26.688Z,3.07
2019-03-11T17:57:32.502Z,2.40
2019-03-11T17:59:38.417Z,3.67
2019-03-11T18:01:43.181Z,4.83
2019-03-11T18:03:49.095Z,4.23
2019-03-11T18:05:56.934Z,3.00
2019-03-11T18:08:01.010Z,1.90
2019-03-11T18:10:06.004Z,2.40
2019-03-11T18:12:10.889Z,2.37
2019-03-11T18:14:15.725Z,2.87
2019-03-11T18:16:21.107Z,2.53
2019-03-11T18:18:32.942Z,2.73
2019-03-11T18:20:32.659Z,2.23
2019-03-11T18:22:37.838Z,2.33
2019-03-11T18:24:42.645Z,3.77
2019-03-11T18:26:47.884Z,2.70
2019-03-11T18:28:52.706Z,1.93
2019-03-11T18:30:57.618Z,3.33
2019-03-11T18:33:02.521Z,2.83
2019-03-11T18:35:16.758Z,2.57
2019-03-11T18:37:33.570Z,2.50
2019-03-11T18:39:38.619Z,2.70
2019-03-11T18:41:43.857Z,2.87
2019-03-11T18:43:48.836Z,3.20
2019-03-11T18:45:54.317Z,2.10
2019-03-11T18:47:59.332Z,2.37
2019-03-11T18:50:10.593Z,2.80
2019-03-11T18:52:15.885Z,3.53
2019-03-11T18:54:24.687Z,2.67
2019-03-11T18:56:29.576Z,2.37
2019-03-11T18:58:34.861Z,3.00
2019-03-11T19:07:59.716Z,3.07
2019-03-11T19:10:05.005Z,3.90
2019-03-11T19:12:09.964Z,3.53
2019-03-11T19:14:52.860Z,6.57
2019-03-11T19:21:33.253Z,4.80
2019-03-11T19:27:55.209Z,2.73
2019-03-11T19:30:00.145Z,4.73
2019-03-11T19:32:44.571Z,4.13
2019-03-11T19:34:50.027Z,3.90
2019-03-11T19:37:33.650Z,4.40
2019-03-11T19:43:20.178Z,2.20
2019-03-11T19:45:59.707Z,2.27
2019-03-11T19:48:27.095Z,2.60
2019-03-11T19:50:33.097Z,3.00
2019-03-11T19:52:57.831Z,3.50
2019-03-11T19:54:53.218Z,3.37
2019-03-11T19:56:58.049Z,2.63
2019-03-11T19:59:02.829Z,2.93
2019-03-11T20:01:07.769Z,2.80
2019-03-11T20:03:23.819Z,5.80
2019-03-11T20:05:21.325Z,3.60
2019-03-11T20:07:30.226Z,4.70
2019-03-11T20:09:34.808Z,3.30
2019-03-11T20:11:42.353Z,3.10
2019-03-11T20:13:47.290Z,3.20
2019-03-11T20:15:54.012Z,3.43
2019-03-11T20:17:59.471Z,2.80
2019-03-11T20:20:05.876Z,2.87
2019-03-11T20:22:10.929Z,4.37
2019-03-11T20:24:16.419Z,3.80
2019-03-11T20:26:24.858Z,3.80
2019-03-11T20:28:30.075Z,3.13
2019-03-11T20:30:35.103Z,3.53
2019-03-11T20:32:39.900Z,2.80
2019-03-11T20:34:44.770Z,3.60
2019-03-11T20:36:49.662Z,3.33
2019-03-11T20:38:55.064Z,3.10
2019-03-11T20:41:00.332Z,4.60
2019-03-11T20:43:07.061Z,3.60
2019-03-11T20:45:12.528Z,3.43
2019-03-11T20:47:24.080Z,6.33
2019-03-11T20:49:31.449Z,19.27
2019-03-11T20:51:36.163Z,33.50
2019-03-11T20:53:41.199Z,40.20
2019-03-11T20:55:46.208Z,32.33
2019-03-11T20:57:51.298Z,57.83
2019-03-11T20:59:56.597Z,17.40
2019-03-11T21:02:01.327Z,8.27
2019-03-11T21:04:06.664Z,24.17
2019-03-11T21:06:11.466Z,13.63
2019-03-11T21:08:16.198Z,11.30
2019-03-11T21:10:21.554Z,3.97
2019-03-11T21:12:26.597Z,3.20
2019-03-11T21:14:31.493Z,4.50
2019-03-11T21:16:36.622Z,5.40
2019-03-11T21:18:41.439Z,4.50
2019-03-11T21:20:46.813Z,3.87
2019-03-11T21:22:51.782Z,3.00
2019-03-11T21:24:59.873Z,4.80
2019-03-11T21:27:03.393Z,9.53
2019-03-11T21:29:08.160Z,4.57
2019-03-11T21:31:13.132Z,3.47
2019-03-11T21:33:18.328Z,7.00
2019-03-11T21:35:23.445Z,4.30
2019-03-11T21:37:28.703Z,3.77
2019-03-11T21:39:33.439Z,4.50
2019-03-11T21:41:38.387Z,4.67
2019-03-11T21:43:43.183Z,4.20
2019-03-11T21:45:48.383Z,4.70
2019-03-11T21:47:53.321Z,3.70
2019-03-11T21:49:58.141Z,5.17
2019-03-11T21:52:03.279Z,3.83
2019-03-11T21:54:08.084Z,5.20
2019-03-11T21:56:12.954Z,5.40
2019-03-11T21:58:18.692Z,3.83
2019-03-11T22:00:33.899Z,4.20
2019-03-11T22:02:30.463Z,4.17
2019-03-11T22:04:35.270Z,5.33
2019-03-11T22:06:40.127Z,6.57
2019-03-11T22:08:45.310Z,5.27
2019-03-11T22:10:50.111Z,4.23
2019-03-11T22:12:54.873Z,3.43
2019-03-11T22:14:59.583Z,3.20
2019-03-11T22:17:04.394Z,3.13
2019-03-11T22:19:09.583Z,4.20
2019-03-11T22:21:14.369Z,2.97
2019-03-11T22:23:19.195Z,4.00
2019-03-11T22:25:23.961Z,10.97
2019-03-11T22:27:28.733Z,5.03
2019-03-11T22:29:33.895Z,6.83
2019-03-11T22:31:39.466Z,5.70
2019-03-11T22:33:44.254Z,4.37
2019-03-11T22:35:49.039Z,3.40
2019-03-11T22:37:53.790Z,4.00
2019-03-11T22:39:58.541Z,4.13
2019-03-11T22:42:03.292Z,4.03
2019-03-11T22:44:08.064Z,4.00
2019-03-11T22:46:14.680Z,4.43
2019-03-11T22:48:21.034Z,4.90
2019-03-11T22:50:26.407Z,3.40
2019-03-11T22:52:31.548Z,3.83
2019-03-11T22:54:36.365Z,4.10
2019-03-11T22:56:41.976Z,3.37
2019-03-11T22:58:46.757Z,3.80
2019-03-11T23:00:56.482Z,3.53
2019-03-11T23:03:02.190Z,3.07
2019-03-11T23:05:07.222Z,3.20
2019-03-11T23:07:12.760Z,3.30
2019-03-11T23:09:17.721Z,3.50
2019-03-11T23:11:22.451Z,3.87
2019-03-11T23:13:27.602Z,3.50
2019-03-11T23:15:32.920Z,4.00
2019-03-11T23:17:37.791Z,3.90
2019-03-11T23:19:42.947Z,4.37
2019-03-11T23:21:47.748Z,4.43
2019-03-11T23:23:52.798Z,4.33
2019-03-11T23:25:58.011Z,4.13
2019-03-11T23:28:02.791Z,3.90
2019-03-11T23:30:07.736Z,4.50
2019-03-11T23:32:12.560Z,4.30
2019-03-11T23:34:17.340Z,4.80
2019-03-11T23:36:22.469Z,5.17
2019-03-11T23:38:27.291Z,5.80
2019-03-11T23:40:32.043Z,5.00
2019-03-11T23:42:36.829Z,5.20
2019-03-11T23:44:41.989Z,4.80
2019-03-11T23:46:56.125Z,5.47
2019-03-11T23:49:07.226Z,5.33
2019-03-11T23:51:12.496Z,4.60
2019-03-11T23:53:17.682Z,5.80
2019-03-11T23:55:22.805Z,5.30
2019-03-11T23:57:27.658Z,6.17
2019-03-11T23:59:33.063Z,7.40
